Time;durP1;ratioP1;P1;durP2;ratioP2;P2;SDS_P1;SDS_P2;PMS_P1;PMS_P2;Temp;Humidity;BMP_temperature;BMP_pressure;BME280_temperature;BME280_humidity;BME280_pressure;Samples;Min_cycle;Max_cycle;Signal;HPM_P1;HPM_P2
2022/10/23 00:01:22;;;;;;;11.10;2.70;;;16.20;99.90;;;;;;4087182;29;20198;-93
2022/10/23 00:03:23;;;;;;;10.88;2.85;;;16.20;99.90;;;;;;4087832;29;20573;-94
2022/10/23 00:05:24;;;;;;;7.65;2.80;;;16.20;99.90;;;;;;4087025;29;20228;-95
2022/10/23 00:07:25;;;;;;;10.15;2.28;;;16.40;99.90;;;;;;4087665;29;20187;-94
2022/10/23 00:09:26;;;;;;;10.27;2.30;;;16.40;99.90;;;;;;4103308;29;20175;-94
2022/10/23 00:11:28;;;;;;;12.75;2.22;;;16.60;99.90;;;;;;4088358;29;20257;-94
2022/10/23 00:13:30;;;;;;;8.98;2.28;;;16.60;99.90;;;;;;4087411;29;20243;-93
2022/10/23 00:15:33;;;;;;;7.60;2.20;;;16.60;99.90;;;;;;4088261;29;20798;-95
2022/10/23 00:17:34;;;;;;;7.13;1.90;;;16.50;99.90;;;;;;4088736;29;20179;-94
2022/10/23 00:19:35;;;;;;;9.77;2.38;;;16.50;99.90;;;;;;4089326;29;20751;-93
2022/10/23 00:21:35;;;;;;;8.48;2.10;;;16.40;99.90;;;;;;4103870;28;20191;-95
2022/10/23 00:23:36;;;;;;;6.10;2.05;;;16.50;99.90;;;;;;4088390;29;20653;-93
2022/10/23 00:25:37;;;;;;;4.97;1.80;;;16.40;99.90;;;;;;4087486;29;20172;-92
2022/10/23 00:27:38;;;;;;;5.38;1.83;;;16.40;99.90;;;;;;4087244;29;20184;-92
2022/10/23 00:29:39;;;;;;;5.63;1.88;;;16.40;99.90;;;;;;4103360;28;20171;-94
2022/10/23 00:31:40;;;;;;;16.65;3.08;;;16.40;99.90;;;;;;4087806;29;20212;-93
2022/10/23 00:33:42;;;;;;;4.50;1.70;;;16.50;99.90;;;;;;4087399;29;20197;-93
2022/10/23 00:35:42;;;;;;;5.88;2.35;;;16.50;99.90;;;;;;4103001;28;20206;-93
2022/10/23 00:37:43;;;;;;;8.93;2.47;;;16.50;99.90;;;;;;4104015;28;20171;-94
2022/10/23 00:39:44;;;;;;;7.57;2.30;;;16.50;99.90;;;;;;4103385;29;20189;-93
2022/10/23 00:41:45;;;;;;;8.27;2.47;;;16.40;99.90;;;;;;4087908;29;20238;-94
2022/10/23 00:43:56;;;;;;;9.90;2.08;;;16.50;99.90;;;;;;4086993;29;20581;-93
2022/10/23 00:45:57;;;;;;;5.70;2.22;;;16.50;99.90;;;;;;4087762;29;20254;-94
2022/10/23 00:48:00;;;;;;;7.00;2.20;;;16.40;99.90;;;;;;4087522;29;20247;-93
2022/10/23 00:50:01;;;;;;;9.93;2.67;;;16.50;99.90;;;;;;4086528;29;20191;-93
2022/10/23 00:52:06;;;;;;;13.25;2.55;;;16.50;99.90;;;;;;4087186;29;20246;-91
2022/10/23 00:54:10;;;;;;;14.43;2.45;;;16.50;99.90;;;;;;4088943;29;20250;-94
2022/10/23 00:56:10;;;;;;;7.30;2.53;;;16.60;99.90;;;;;;4087948;29;20182;-93
2022/10/23 00:58:16;;;;;;;7.88;2.45;;;16.60;99.90;;;;;;4086865;29;20179;-94
2022/10/23 01:00:30;;;;;;;10.43;2.78;;;16.60;99.90;;;;;;4087739;29;20175;-96
2022/10/23 01:02:33;;;;;;;10.30;2.80;;;16.60;99.90;;;;;;4087452;29;20187;-95
2022/10/23 01:04:35;;;;;;;11.10;2.85;;;16.50;99.90;;;;;;4103060;28;20178;-93
2022/10/23 01:06:55;;;;;;;11.77;3.53;;;16.50;99.90;;;;;;4087582;29;20172;-93
2022/10/23 01:09:01;;;;;;;7.35;2.75;;;16.60;99.90;;;;;;4086002;29;20246;-92
2022/10/23 01:11:23;;;;;;;10.65;3.55;;;16.70;99.90;;;;;;4086926;29;20216;-93
2022/10/23 01:13:49;;;;;;;12.07;3.10;;;16.70;99.90;;;;;;4086929;29;20640;-94
2022/10/23 01:16:04;;;;;;;14.10;3.05;;;16.70;99.90;;;;;;4085840;29;20214;-94
2022/10/23 01:18:26;;;;;;;14.27;3.50;;;16.60;99.90;;;;;;4086952;29;20235;-94
2022/10/23 01:21:23;;;;;;;12.05;3.22;;;16.60;99.90;;;;;;4087019;29;20772;-95
2022/10/23 01:23:49;;;;;;;9.50;2.88;;;16.60;99.90;;;;;;3993789;29;20199;-93
2022/10/23 01:26:09;;;;;;;11.02;3.15;;;16.60;99.90;;;;;;3994111;29;20225;-94
2022/10/23 01:28:19;;;;;;;12.25;3.38;;;16.60;99.90;;;;;;4022783;29;20187;-93
2022/10/23 01:30:20;;;;;;;9.77;3.13;;;16.70;99.90;;;;;;4086147;29;20178;-93
2022/10/23 01:32:34;;;;;;;12.80;3.30;;;16.70;99.90;;;;;;4086618;29;20215;-94
2022/10/23 01:35:01;;;;;;;11.60;2.97;;;16.70;99.90;;;;;;4088808;29;20235;-93
2022/10/23 01:37:05;;;;;;;11.63;3.35;;;16.60;99.90;;;;;;4086343;29;20263;-92
2022/10/23 01:39:12;;;;;;;6.82;2.78;;;16.50;99.90;;;;;;4085922;29;20176;-96
2022/10/23 01:41:28;;;;;;;12.90;3.40;;;16.50;99.90;;;;;;4085907;29;20230;-93
2022/10/23 01:44:00;;;;;;;12.85;3.13;;;16.50;99.90;;;;;;4087802;29;20182;-94
2022/10/23 01:46:09;;;;;;;9.45;2.78;;;16.40;99.90;;;;;;4084730;28;20178;-93
2022/10/23 01:48:16;;;;;;;10.90;3.38;;;16.40;99.90;;;;;;4071322;29;20208;-93
2022/10/23 01:50:19;;;;;;;12.38;2.85;;;16.40;99.90;;;;;;4070997;29;20204;-93
2022/10/23 01:52:23;;;;;;;11.85;2.80;;;16.40;99.90;;;;;;4085712;29;20294;-93
2022/10/23 01:54:30;;;;;;;15.40;2.95;;;16.50;99.90;;;;;;4102585;28;20234;-92
2022/10/23 01:56:34;;;;;;;9.27;3.00;;;16.50;99.90;;;;;;4086160;29;20180;-94
2022/10/23 01:58:36;;;;;;;9.05;2.70;;;16.40;99.90;;;;;;4086206;29;20175;-91
2022/10/23 02:00:40;;;;;;;10.98;3.10;;;16.40;99.90;;;;;;4101793;28;20619;-95
2022/10/23 02:02:43;;;;;;;10.13;3.13;;;16.40;99.90;;;;;;4086762;29;20175;-94
2022/10/23 02:05:09;;;;;;;12.45;2.85;;;16.40;99.90;;;;;;4087325;29;20266;-92
2022/10/23 02:07:11;;;;;;;8.43;2.78;;;16.40;99.90;;;;;;4086712;29;20203;-94
2022/10/23 02:09:12;;;;;;;13.13;2.80;;;16.40;99.90;;;;;;4070039;29;20207;-96
2022/10/23 02:11:20;;;;;;;10.88;2.65;;;16.40;99.90;;;;;;4086836;29;20211;-95
2022/10/23 02:13:45;;;;;;;10.35;2.50;;;16.40;99.90;;;;;;4086493;29;20181;-93
2022/10/23 02:16:04;;;;;;;8.52;2.63;;;16.50;99.90;;;;;;4102358;28;20569;-95
2022/10/23 02:18:13;;;;;;;11.32;2.40;;;16.50;99.90;;;;;;4085714;29;20168;-93
2022/10/23 02:20:27;;;;;;;8.23;2.58;;;16.60;99.90;;;;;;4086470;29;20183;-94
2022/10/23 02:22:35;;;;;;;10.35;2.63;;;16.50;99.90;;;;;;4086378;29;20199;-96
2022/10/23 02:24:54;;;;;;;12.68;2.40;;;16.40;99.90;;;;;;4086731;29;20637;-93
2022/10/23 02:26:59;;;;;;;11.23;2.38;;;16.50;99.90;;;;;;4085389;29;20190;-93
2022/10/23 02:29:12;;;;;;;9.48;2.38;;;16.60;99.90;;;;;;4085758;29;20210;-94
2022/10/23 02:31:20;;;;;;;9.57;2.70;;;16.40;99.90;;;;;;4087357;29;20215;-94
2022/10/23 02:33:26;;;;;;;6.22;2.20;;;16.40;99.90;;;;;;4085862;29;20179;-95
2022/10/23 02:35:27;;;;;;;6.28;1.98;;;16.40;99.90;;;;;;4085024;29;20657;-93
2022/10/23 02:37:37;;;;;;;6.90;2.30;;;16.40;99.90;;;;;;4101147;28;20734;-93
2022/10/23 02:39:39;;;;;;;12.18;2.30;;;16.40;99.90;;;;;;4085615;29;20175;-93
2022/10/23 02:41:59;;;;;;;9.60;2.10;;;16.40;99.90;;;;;;4102489;29;20195;-93
2022/10/23 02:44:23;;;;;;;8.50;2.88;;;16.40;99.90;;;;;;4084773;29;20179;-95
2022/10/23 02:46:34;;;;;;;9.57;1.98;;;16.30;99.90;;;;;;4086435;29;20683;-94
2022/10/23 02:48:47;;;;;;;6.53;1.92;;;16.30;99.90;;;;;;4086094;29;20175;-94
2022/10/23 02:51:00;;;;;;;7.70;2.10;;;16.40;99.90;;;;;;4086516;29;20218;-93
2022/10/23 02:53:08;;;;;;;8.52;2.10;;;16.50;99.90;;;;;;4085446;29;20254;-93
2022/10/23 02:55:29;;;;;;;8.75;2.22;;;16.50;99.90;;;;;;4087014;29;20323;-93
2022/10/23 02:57:38;;;;;;;10.77;1.88;;;16.50;99.90;;;;;;4085808;29;20190;-94
2022/10/23 02:59:47;;;;;;;10.27;2.25;;;16.50;99.90;;;;;;4086543;29;20179;-93
2022/10/23 03:01:52;;;;;;;13.88;2.00;;;16.50;99.90;;;;;;4085381;29;20195;-92
2022/10/23 03:03:56;;;;;;;7.68;1.85;;;16.50;99.90;;;;;;4085360;29;20175;-93
2022/10/23 03:05:57;;;;;;;10.50;2.15;;;16.50;99.90;;;;;;4085037;29;20184;-92
2022/10/23 03:07:58;;;;;;;6.38;1.83;;;16.50;99.90;;;;;;4086481;29;20262;-93
2022/10/23 03:09:59;;;;;;;5.90;1.90;;;16.40;99.90;;;;;;4087316;29;20175;-94
2022/10/23 03:12:00;;;;;;;4.93;2.10;;;16.50;99.90;;;;;;4087326;29;20238;-93
2022/10/23 03:14:06;;;;;;;8.07;2.17;;;16.50;99.90;;;;;;4101789;28;20178;-93
2022/10/23 03:16:07;;;;;;;10.15;2.05;;;16.50;99.90;;;;;;4086112;29;21259;-93
2022/10/23 03:18:09;;;;;;;6.15;2.05;;;16.50;99.90;;;;;;4101546;28;20182;-92
2022/10/23 03:20:11;;;;;;;8.75;2.30;;;16.50;99.90;;;;;;4102126;28;20183;-93
2022/10/23 03:22:11;;;;;;;10.52;2.20;;;16.40;99.90;;;;;;4069685;29;20200;-94
2022/10/23 03:24:12;;;;;;;9.55;2.53;;;16.50;99.90;;;;;;4085136;29;20628;-93
2022/10/23 03:26:16;;;;;;;8.32;2.00;;;16.40;99.90;;;;;;4100853;28;20179;-93
2022/10/23 03:28:17;;;;;;;7.90;2.10;;;16.40;99.90;;;;;;4069807;29;20175;-96
2022/10/23 03:30:19;;;;;;;9.40;2.00;;;16.40;99.90;;;;;;4102309;28;20233;-96
2022/10/23 03:32:24;;;;;;;6.57;2.00;;;16.50;99.90;;;;;;4102181;28;20210;-92
2022/10/23 03:34:25;;;;;;;9.57;2.03;;;16.50;99.90;;;;;;4102205;28;20632;-94
2022/10/23 03:36:27;;;;;;;6.68;2.28;;;16.50;99.90;;;;;;4103403;28;20175;-93
2022/10/23 03:38:32;;;;;;;7.80;2.08;;;16.50;99.90;;;;;;4087405;29;20707;-93
2022/10/23 03:40:36;;;;;;;10.45;1.65;;;16.60;99.90;;;;;;4101314;29;20187;-93
2022/10/23 03:42:37;;;;;;;4.75;1.88;;;16.70;99.90;;;;;;4086455;29;20175;-93
2022/10/23 03:44:38;;;;;;;16.10;2.10;;;16.50;99.90;;;;;;4086095;29;20179;-93
2022/10/23 03:46:39;;;;;;;5.95;1.92;;;16.40;99.90;;;;;;4086049;29;20223;-94
2022/10/23 03:48:40;;;;;;;6.25;1.80;;;16.40;99.90;;;;;;4085674;29;20172;-92
2022/10/23 03:50:42;;;;;;;7.93;1.88;;;16.40;99.90;;;;;;4086283;29;20172;-93
2022/10/23 03:52:43;;;;;;;9.48;1.88;;;16.40;99.90;;;;;;4086780;29;20186;-91
2022/10/23 03:54:46;;;;;;;6.05;2.08;;;16.40;99.90;;;;;;4100687;28;20186;-94
2022/10/23 03:56:47;;;;;;;11.75;2.08;;;16.40;99.90;;;;;;4086833;29;20652;-94
2022/10/23 03:58:48;;;;;;;15.30;2.08;;;16.40;99.90;;;;;;4102376;29;20171;-95
2022/10/23 04:00:49;;;;;;;7.50;1.70;;;16.40;99.90;;;;;;4085529;29;20184;-93
2022/10/23 04:02:54;;;;;;;9.25;1.88;;;16.50;99.90;;;;;;4085678;29;20184;-94
2022/10/23 04:04:55;;;;;;;5.78;1.60;;;16.40;99.90;;;;;;4088629;29;20171;-93
2022/10/23 04:06:57;;;;;;;8.25;2.17;;;16.50;99.90;;;;;;4086767;29;20203;-94
2022/10/23 04:08:58;;;;;;;7.82;1.90;;;16.50;99.90;;;;;;4071120;29;20203;-92
2022/10/23 04:10:59;;;;;;;11.38;2.00;;;16.40;99.90;;;;;;4085918;29;20223;-94
2022/10/23 04:13:22;;;;;;;4.57;1.65;;;16.40;99.90;;;;;;4095292;29;20179;-93
2022/10/23 04:15:23;;;;;;;9.18;1.90;;;16.40;99.90;;;;;;4086770;29;20605;-93
2022/10/23 04:17:24;;;;;;;6.43;2.05;;;16.40;99.90;;;;;;4085802;29;20704;-93
2022/10/23 04:19:27;;;;;;;9.18;1.98;;;16.50;99.90;;;;;;4101037;29;20179;-94
2022/10/23 04:21:30;;;;;;;6.57;2.00;;;16.60;99.90;;;;;;4086519;29;20219;-93
2022/10/23 04:23:30;;;;;;;5.57;1.88;;;16.50;99.90;;;;;;4101192;29;20167;-92
2022/10/23 04:25:31;;;;;;;5.82;1.98;;;16.40;99.90;;;;;;4086267;29;20250;-94
2022/10/23 04:27:33;;;;;;;7.22;2.05;;;16.50;99.90;;;;;;4086505;29;20171;-93
2022/10/23 04:29:34;;;;;;;8.13;1.95;;;16.50;99.90;;;;;;4102317;29;20222;-92
2022/10/23 04:31:35;;;;;;;7.28;1.80;;;16.60;99.90;;;;;;4086974;29;20730;-93
2022/10/23 04:33:40;;;;;;;9.85;1.90;;;16.60;99.90;;;;;;4104218;28;20628;-93
2022/10/23 04:35:48;;;;;;;10.82;1.60;;;16.50;99.90;;;;;;4089645;29;20256;-94
2022/10/23 04:37:48;;;;;;;7.10;1.58;;;16.50;99.90;;;;;;4088712;29;20227;-94
2022/10/23 04:39:49;;;;;;;8.25;1.77;;;16.50;99.90;;;;;;4088722;29;20179;-93
2022/10/23 04:41:50;;;;;;;4.82;1.50;;;16.40;99.90;;;;;;4090135;29;20300;-93
2022/10/23 04:43:53;;;;;;;12.38;2.05;;;16.50;99.90;;;;;;4105668;28;20210;-95
2022/10/23 04:45:54;;;;;;;5.70;1.88;;;16.50;99.90;;;;;;4090163;29;20196;-93
2022/10/23 04:47:59;;;;;;;8.93;1.70;;;16.50;99.90;;;;;;4104315;28;20727;-93
2022/10/23 04:50:01;;;;;;;6.78;2.20;;;16.50;99.90;;;;;;4105391;28;20174;-93
2022/10/23 04:52:25;;;;;;;9.02;2.00;;;16.50;99.90;;;;;;4089054;29;20575;-95
2022/10/23 04:54:58;;;;;;;8.75;1.90;;;16.40;99.90;;;;;;4104573;29;20191;-94
2022/10/23 04:57:24;;;;;;;6.05;1.85;;;16.50;99.90;;;;;;4081976;29;20175;-93
2022/10/23 04:59:41;;;;;;;8.50;1.83;;;16.60;99.90;;;;;;4077794;29;20192;-93
2022/10/23 05:01:42;;;;;;;7.32;2.20;;;16.40;99.90;;;;;;4089518;29;20199;-92
2022/10/23 05:03:47;;;;;;;5.85;1.75;;;16.40;99.90;;;;;;4104611;28;20223;-93
2022/10/23 05:05:53;;;;;;;7.22;1.67;;;16.50;99.90;;;;;;4089234;29;20183;-93
2022/10/23 05:08:16;;;;;;;4.43;1.60;;;16.50;99.90;;;;;;4105204;29;20310;-95
2022/10/23 05:10:40;;;;;;;10.00;1.90;;;16.60;99.90;;;;;;4077278;29;20187;-93
2022/10/23 05:12:46;;;;;;;5.20;1.80;;;16.60;99.90;;;;;;4089063;29;20160;-93
2022/10/23 05:14:47;;;;;;;3.83;1.70;;;16.50;99.90;;;;;;4105092;28;20233;-94
2022/10/23 05:16:58;;;;;;;6.22;2.00;;;16.50;99.90;;;;;;4087503;29;20210;-93
2022/10/23 05:19:00;;;;;;;11.05;1.73;;;16.50;99.90;;;;;;4104949;28;20182;-93
2022/10/23 05:21:26;;;;;;;3.90;1.42;;;16.50;99.90;;;;;;4102440;28;20199;-93
2022/10/23 05:23:30;;;;;;;3.60;1.30;;;16.60;99.90;;;;;;4087912;29;20270;-94
2022/10/23 05:25:35;;;;;;;4.95;1.70;;;16.60;99.90;;;;;;4089037;29;20174;-93
2022/10/23 05:27:46;;;;;;;4.50;1.75;;;16.50;99.90;;;;;;4088053;29;20171;-94
2022/10/23 05:29:52;;;;;;;9.50;1.60;;;16.60;99.90;;;;;;4104040;28;20170;-93
2022/10/23 05:32:04;;;;;;;7.03;1.70;;;16.50;99.90;;;;;;4104083;28;20741;-93
2022/10/23 05:34:21;;;;;;;4.93;1.50;;;16.50;99.90;;;;;;4104944;28;20178;-95
2022/10/23 05:36:23;;;;;;;5.82;1.65;;;16.50;99.90;;;;;;4087806;28;20187;-93
2022/10/23 05:38:33;;;;;;;6.78;1.80;;;16.50;99.90;;;;;;4089154;29;20182;-94
2022/10/23 05:40:44;;;;;;;8.57;1.55;;;16.40;99.90;;;;;;4089313;29;20649;-94
2022/10/23 05:42:50;;;;;;;5.60;1.40;;;16.40;99.90;;;;;;4103594;28;20241;-92
2022/10/23 05:44:55;;;;;;;6.68;1.38;;;16.40;99.90;;;;;;4103208;28;20175;-93
2022/10/23 05:47:16;;;;;;;6.93;1.75;;;16.40;99.90;;;;;;4102031;28;20179;-92
2022/10/23 05:49:32;;;;;;;2.92;1.45;;;16.40;99.90;;;;;;4090638;28;20221;-96
2022/10/23 05:52:10;;;;;;;6.47;1.48;;;16.40;99.90;;;;;;4103383;28;20270;-93
2022/10/23 05:54:30;;;;;;;4.63;1.60;;;16.40;99.90;;;;;;4103137;28;20179;-93
2022/10/23 05:56:50;;;;;;;6.70;1.40;;;16.40;99.90;;;;;;4090786;29;20183;-92
2022/10/23 05:59:11;;;;;;;9.75;1.60;;;16.40;99.90;;;;;;4100896;29;20183;-96
2022/10/23 06:01:30;;;;;;;4.80;1.70;;;16.50;99.90;;;;;;4103181;28;20266;-95
2022/10/23 06:03:39;;;;;;;3.47;1.30;;;16.60;99.90;;;;;;4087605;29;20167;-95
2022/10/23 06:05:49;;;;;;;6.50;1.20;;;16.70;99.90;;;;;;4102679;29;20232;-95
2022/10/23 06:07:59;;;;;;;5.32;1.52;;;16.70;99.90;;;;;;4090371;29;20656;-96
2022/10/23 06:10:00;;;;;;;7.60;1.48;;;16.70;99.90;;;;;;4087538;29;20184;-94
2022/10/23 06:12:02;;;;;;;6.00;1.30;;;16.70;99.90;;;;;;4087423;29;20225;-93
2022/10/23 06:14:06;;;;;;;6.47;1.30;;;16.80;99.90;;;;;;4105215;29;20174;-96
2022/10/23 06:16:29;;;;;;;5.68;1.20;;;16.70;99.90;;;;;;4088363;29;20205;-94
2022/10/23 06:18:31;;;;;;;4.25;1.30;;;16.50;99.90;;;;;;4102433;29;20179;-94
2022/10/23 06:20:40;;;;;;;2.47;1.30;;;16.70;99.90;;;;;;4088506;28;20176;-94
2022/10/23 06:22:51;;;;;;;7.93;1.90;;;16.70;99.90;;;;;;4087523;29;20176;-93
2022/10/23 06:25:13;;;;;;;5.55;1.25;;;16.70;99.90;;;;;;4090743;29;20163;-95
2022/10/23 06:27:14;;;;;;;11.13;1.50;;;16.80;99.90;;;;;;4101519;28;20242;-93
2022/10/23 06:29:16;;;;;;;2.88;1.55;;;16.80;99.90;;;;;;4087991;29;20296;-94
2022/10/23 06:31:26;;;;;;;5.70;1.30;;;16.60;99.90;;;;;;4087609;29;20238;-93
2022/10/23 06:33:28;;;;;;;6.90;1.63;;;16.60;99.90;;;;;;4085309;29;20264;-94
2022/10/23 06:35:29;;;;;;;5.00;1.33;;;16.60;99.90;;;;;;4104748;28;20280;-94
2022/10/23 06:37:32;;;;;;;8.02;1.30;;;16.60;99.90;;;;;;4088243;29;20178;-95
2022/10/23 06:39:44;;;;;;;7.32;1.52;;;16.50;99.90;;;;;;4102363;28;20175;-94
2022/10/23 06:41:51;;;;;;;6.05;1.60;;;16.60;99.90;;;;;;4102820;28;20206;-95
2022/10/23 06:44:11;;;;;;;3.67;1.75;;;16.70;99.90;;;;;;4104074;28;20273;-93
2022/10/23 06:46:17;;;;;;;7.50;1.35;;;16.70;99.90;;;;;;4088240;29;20180;-93
2022/10/23 06:48:47;;;;;;;6.88;1.40;;;16.60;99.90;;;;;;4090039;29;20214;-94
2022/10/23 06:50:55;;;;;;;3.22;1.30;;;16.60;99.90;;;;;;4087963;29;20203;-93
2022/10/23 06:53:08;;;;;;;6.28;1.65;;;16.70;99.90;;;;;;4103101;29;20623;-93
2022/10/23 06:55:11;;;;;;;9.88;1.38;;;16.70;99.90;;;;;;4085805;29;20183;-94
2022/10/23 06:57:14;;;;;;;3.13;1.33;;;16.70;99.90;;;;;;4103573;28;20183;-95
2022/10/23 06:59:29;;;;;;;3.45;1.40;;;16.70;99.90;;;;;;4087828;29;20180;-95
2022/10/23 07:01:31;;;;;;;6.40;1.48;;;16.70;99.90;;;;;;4088196;29;20198;-96
2022/10/23 07:03:33;;;;;;;6.25;1.60;;;16.90;99.90;;;;;;4103717;28;20178;-94
2022/10/23 07:05:36;;;;;;;4.50;1.50;;;16.70;99.90;;;;;;4087020;29;20175;-94
2022/10/23 07:07:37;;;;;;;2.42;1.27;;;16.70;99.90;;;;;;4086762;29;20212;-94
2022/10/23 07:09:38;;;;;;;9.38;1.42;;;16.70;99.90;;;;;;4102719;29;20182;-93
2022/10/23 07:12:02;;;;;;;4.97;1.20;;;16.70;99.90;;;;;;4104094;28;20309;-94
2022/10/23 07:14:13;;;;;;;4.40;1.30;;;16.80;99.90;;;;;;4087305;29;20589;-93
2022/10/23 07:16:20;;;;;;;2.35;1.10;;;16.90;99.90;;;;;;4101356;28;20186;-93
2022/10/23 07:18:21;;;;;;;3.67;1.50;;;16.90;99.90;;;;;;4087014;29;20171;-95
2022/10/23 07:20:42;;;;;;;8.85;1.35;;;16.90;99.90;;;;;;4102433;28;20246;-94
2022/10/23 07:22:43;;;;;;;8.18;1.70;;;17.00;99.90;;;;;;4086620;29;20227;-94
2022/10/23 07:24:47;;;;;;;4.38;1.42;;;17.00;99.90;;;;;;4085798;29;20179;-95
2022/10/23 07:26:54;;;;;;;8.90;1.67;;;17.00;99.90;;;;;;4087139;29;20224;-95
2022/10/23 07:28:57;;;;;;;6.53;1.40;;;17.20;99.90;;;;;;4101570;28;20183;-95
2022/10/23 07:30:59;;;;;;;7.82;1.60;;;17.30;99.90;;;;;;4087257;29;20216;-93
2022/10/23 07:33:12;;;;;;;3.95;1.23;;;17.40;99.90;;;;;;4101891;28;20192;-91
2022/10/23 07:35:42;;;;;;;2.10;1.35;;;17.40;99.90;;;;;;4088225;28;20201;-94
2022/10/23 07:37:48;;;;;;;3.33;1.45;;;17.40;99.90;;;;;;4101359;28;20286;-96
2022/10/23 07:39:53;;;;;;;6.60;1.88;;;17.30;99.90;;;;;;4087604;29;20222;-93
2022/10/23 07:42:01;;;;;;;8.13;1.38;;;17.30;99.90;;;;;;4101476;28;20201;-94
2022/10/23 07:44:02;;;;;;;6.72;1.38;;;17.40;99.90;;;;;;4087257;29;20187;-94
2022/10/23 07:46:03;;;;;;;4.05;1.48;;;17.50;99.90;;;;;;4090549;28;20199;-93
2022/10/23 07:48:10;;;;;;;3.40;1.40;;;17.50;99.90;;;;;;4105281;28;20174;-94
2022/10/23 07:50:32;;;;;;;7.57;1.40;;;17.50;99.90;;;;;;4094166;29;20756;-93
2022/10/23 07:52:39;;;;;;;5.13;1.73;;;17.40;99.90;;;;;;4090155;29;20268;-95
2022/10/23 07:54:44;;;;;;;3.83;1.38;;;17.40;99.90;;;;;;4093275;29;20242;-91
2022/10/23 07:56:53;;;;;;;8.30;1.60;;;17.60;99.90;;;;;;4096349;29;20206;-93
2022/10/23 07:59:03;;;;;;;5.50;1.67;;;17.60;99.90;;;;;;4092135;29;20214;-94
2022/10/23 08:01:17;;;;;;;6.30;1.45;;;17.60;99.90;;;;;;4091137;29;20234;-95
2022/10/23 08:03:24;;;;;;;4.82;1.77;;;17.60;99.90;;;;;;4090316;29;20176;-92
2022/10/23 08:05:26;;;;;;;6.50;1.60;;;17.60;99.90;;;;;;4104559;28;20191;-94
2022/10/23 08:07:36;;;;;;;6.95;1.65;;;17.70;99.90;;;;;;4111573;28;20177;-96
2022/10/23 08:09:37;;;;;;;5.13;1.40;;;17.70;99.90;;;;;;4073386;29;20684;-94
2022/10/23 08:11:39;;;;;;;6.10;1.75;;;17.70;99.90;;;;;;4090253;29;20211;-94
2022/10/23 08:13:48;;;;;;;6.70;1.67;;;17.70;99.90;;;;;;4089444;29;20171;-95
2022/10/23 08:15:52;;;;;;;4.50;1.85;;;17.70;99.90;;;;;;4105903;28;20205;-91
2022/10/23 08:18:13;;;;;;;7.75;1.90;;;17.70;99.90;;;;;;4103328;28;20170;-94
2022/10/23 08:20:21;;;;;;;5.28;1.60;;;17.80;99.90;;;;;;4088358;29;20183;-92
2022/10/23 08:22:26;;;;;;;9.45;2.30;;;17.80;99.90;;;;;;4105544;28;20686;-94
2022/10/23 08:24:31;;;;;;;9.63;1.73;;;18.10;99.90;;;;;;4105144;28;20162;-94
2022/10/23 08:26:32;;;;;;;4.65;1.50;;;17.90;99.90;;;;;;4089978;29;20172;-94
2022/10/23 08:28:34;;;;;;;9.50;2.00;;;17.80;99.90;;;;;;4106000;28;20191;-95
2022/10/23 08:30:36;;;;;;;6.90;1.63;;;17.80;99.90;;;;;;4088926;29;20172;-93
2022/10/23 08:32:37;;;;;;;5.18;1.63;;;17.60;99.90;;;;;;4104462;28;20245;-93
2022/10/23 08:34:38;;;;;;;3.20;1.60;;;17.70;99.90;;;;;;4104479;28;20536;-94
2022/10/23 08:36:42;;;;;;;3.83;1.63;;;17.80;99.90;;;;;;4103786;28;20171;-93
2022/10/23 08:38:43;;;;;;;4.30;1.60;;;17.70;99.90;;;;;;4090365;29;20698;-90
2022/10/23 08:40:47;;;;;;;7.13;1.83;;;17.70;99.90;;;;;;4107796;29;20241;-95
2022/10/23 08:43:21;;;;;;;7.78;2.03;;;17.80;99.90;;;;;;4097612;29;20182;-89
2022/10/23 08:46:00;;;;;;;10.57;1.55;;;17.90;99.90;;;;;;4110371;28;20246;-93
2022/10/23 08:49:06;;;;;;;7.95;1.90;;;17.90;99.90;;;;;;4107054;29;20186;-90
2022/10/23 08:51:47;;;;;;;7.95;2.03;;;17.90;99.90;;;;;;4111311;28;20314;-92
2022/10/23 08:54:12;;;;;;;7.15;2.17;;;18.00;99.90;;;;;;4092985;28;20172;-91
2022/10/23 08:56:45;;;;;;;6.10;2.03;;;17.90;99.90;;;;;;4093749;29;20179;-91
2022/10/23 08:59:04;;;;;;;9.25;2.03;;;18.00;99.90;;;;;;4096506;28;20246;-91
2022/10/23 09:02:06;;;;;;;9.60;1.77;;;18.00;99.90;;;;;;4091023;29;20258;-92
2022/10/23 09:04:22;;;;;;;8.68;2.22;;;18.00;99.90;;;;;;4094074;29;20323;-91
2022/10/23 09:06:29;;;;;;;4.43;1.95;;;17.90;99.90;;;;;;4091549;28;20205;-91
2022/10/23 09:08:32;;;;;;;5.13;1.75;;;18.10;99.90;;;;;;4109641;29;20194;-91
2022/10/23 09:11:06;;;;;;;8.02;2.28;;;18.00;99.90;;;;;;4096227;28;20191;-91
2022/10/23 09:13:48;;;;;;;7.80;1.88;;;18.20;99.90;;;;;;4094990;29;20214;-89
2022/10/23 09:16:21;;;;;;;5.45;1.70;;;18.10;99.90;;;;;;4110352;28;20278;-91
2022/10/23 09:18:48;;;;;;;9.25;2.03;;;18.00;99.90;;;;;;4118621;28;20182;-91
2022/10/23 09:20:51;;;;;;;14.45;2.08;;;17.90;99.90;;;;;;4091408;29;20187;-89
2022/10/23 09:26:18;;;;;;;6.00;1.95;;;18.00;99.90;;;;;;4107136;29;20200;-90
2022/10/23 09:28:46;;;;;;;13.48;2.10;;;18.10;99.90;;;;;;4090282;28;20190;-90
2022/10/23 09:30:51;;;;;;;4.63;1.73;;;18.20;99.90;;;;;;4120534;28;20167;-90
2022/10/23 09:33:24;;;;;;;5.38;2.00;;;18.20;99.90;;;;;;4134579;28;20177;-91
2022/10/23 09:35:34;;;;;;;6.28;2.08;;;18.30;99.90;;;;;;4106324;28;20232;-95
2022/10/23 09:37:43;;;;;;;10.40;3.08;;;18.40;99.90;;;;;;4085249;28;20271;-92
2022/10/23 09:40:42;;;;;;;4.72;2.03;;;18.50;99.90;;;;;;4116549;28;20238;-91
2022/10/23 09:43:14;;;;;;;12.43;2.20;;;18.70;99.90;;;;;;4104048;28;20159;-92
2022/10/23 09:45:54;;;;;;;12.93;2.78;;;18.80;99.90;;;;;;4104534;28;20267;-91
2022/10/23 09:48:18;;;;;;;10.52;2.30;;;18.70;99.90;;;;;;4086591;28;20160;-92
2022/10/23 09:50:29;;;;;;;6.65;2.55;;;18.90;99.90;;;;;;4102179;29;20203;-91
2022/10/23 09:52:38;;;;;;;9.05;2.67;;;18.90;99.90;;;;;;4101144;29;20218;-90
2022/10/23 09:55:36;;;;;;;9.07;2.60;;;18.90;99.90;;;;;;4100785;29;20183;-91
2022/10/23 09:58:03;;;;;;;5.97;2.35;;;19.10;99.90;;;;;;4087327;28;20215;-92
2022/10/23 10:00:33;;;;;;;5.85;2.28;;;19.00;99.90;;;;;;4105021;28;20171;-89
2022/10/23 10:03:15;;;;;;;9.85;2.72;;;19.20;99.90;;;;;;4085008;28;20236;-90
2022/10/23 10:05:45;;;;;;;9.20;2.58;;;19.40;99.90;;;;;;4116285;29;20183;-93
2022/10/23 10:08:33;;;;;;;6.72;2.10;;;19.20;99.90;;;;;;4104329;28;20183;-96
2022/10/23 10:13:32;;;;;;;11.63;2.30;;;19.40;99.90;;;;;;4103629;28;20195;-91
2022/10/23 10:15:57;;;;;;;6.20;2.30;;;19.40;99.90;;;;;;4100776;28;20211;-91
2022/10/23 10:18:00;;;;;;;8.75;2.22;;;19.60;99.90;;;;;;4084918;28;20261;-94
2022/10/23 10:20:13;;;;;;;6.40;2.20;;;19.50;99.90;;;;;;4085368;28;20176;-92
2022/10/23 10:22:16;;;;;;;7.32;2.30;;;19.50;99.90;;;;;;4112943;29;20221;-92
2022/10/23 10:24:37;;;;;;;14.30;3.17;;;19.60;99.90;;;;;;4112760;29;20186;-94
2022/10/23 10:27:11;;;;;;;8.55;2.40;;;19.90;99.90;;;;;;4099799;29;20171;-89
2022/10/23 10:29:24;;;;;;;9.32;2.47;;;19.80;99.90;;;;;;4042287;29;20197;-92
2022/10/23 10:32:16;;;;;;;8.73;2.47;;;19.80;99.90;;;;;;4107828;29;20233;-90
2022/10/23 10:34:38;;;;;;;7.53;2.28;;;20.00;99.90;;;;;;4098312;29;20202;-93
2022/10/23 10:36:43;;;;;;;9.13;2.20;;;19.80;99.90;;;;;;4098536;29;20572;-92
2022/10/23 10:39:17;;;;;;;12.82;2.47;;;19.80;99.90;;;;;;4095428;29;20167;-95
2022/10/23 10:42:24;;;;;;;6.75;2.35;;;19.80;99.90;;;;;;4118699;28;20202;-93
2022/10/23 10:44:48;;;;;;;6.88;2.17;;;19.70;99.90;;;;;;4100047;28;20195;-93
2022/10/23 10:47:14;;;;;;;11.57;2.53;;;19.70;99.90;;;;;;4101020;29;20175;-93
2022/10/23 10:49:44;;;;;;;7.07;2.25;;;20.00;99.90;;;;;;4084764;29;20163;-89
2022/10/23 10:52:32;;;;;;;6.57;2.20;;;20.00;99.90;;;;;;4100666;29;20305;-91
2022/10/23 10:55:46;;;;;;;10.77;2.35;;;19.90;99.90;;;;;;4113831;28;20186;-90
2022/10/23 10:57:58;;;;;;;11.43;2.97;;;19.90;99.90;;;;;;4114666;28;20183;-95
2022/10/23 11:00:53;;;;;;;8.80;2.67;;;20.20;99.90;;;;;;4102741;28;20163;-96
2022/10/23 11:03:55;;;;;;;9.55;2.30;;;20.30;99.90;;;;;;4099780;28;20267;-94
2022/10/23 11:06:20;;;;;;;11.07;2.45;;;20.20;99.90;;;;;;4118350;28;20280;-96
2022/10/23 11:08:39;;;;;;;7.85;2.38;;;20.10;99.90;;;;;;4103140;28;20151;-95
2022/10/23 11:11:05;;;;;;;9.88;2.35;;;20.30;99.90;;;;;;4120615;28;20163;-92
2022/10/23 11:13:53;;;;;;;16.05;2.20;;;20.50;99.90;;;;;;4103110;28;20236;-91
2022/10/23 11:16:29;;;;;;;6.85;2.13;;;20.40;99.90;;;;;;4102967;28;20179;-90
2022/10/23 11:19:15;;;;;;;6.20;2.35;;;20.20;99.90;;;;;;4098549;28;20246;-90
2022/10/23 11:22:27;;;;;;;14.23;2.40;;;20.40;99.90;;;;;;4119590;28;20193;-94
2022/10/23 11:25:12;;;;;;;10.40;2.03;;;20.60;99.90;;;;;;4099397;29;20211;-94
2022/10/23 11:31:29;;;;;;;7.55;2.53;;;21.00;99.90;;;;;;4120819;28;20154;-90
2022/10/23 11:38:08;;;;;;;4.88;1.65;;;21.40;99.90;;;;;;4011177;29;20199;-89
2022/10/23 11:40:09;;;;;;;6.70;2.00;;;21.30;99.90;;;;;;3998543;29;20172;-90
2022/10/23 11:42:40;;;;;;;8.63;2.00;;;21.40;99.90;;;;;;4105909;28;20190;-89